Time;durP1;ratioP1;P1;durP2;ratioP2;P2;SDS_P1;SDS_P2;PMS_P1;PMS_P2;Temp;Humidity;BMP_temperature;BMP_pressure;BME280_temperature;BME280_humidity;BME280_pressure;Samples;Min_cycle;Max_cycle;Signal;HPM_P1;HPM_P2
2023/03/24 00:01:08;;;;;;;12.13;2.13;;;7.20;99.90;;;;;;5084508;28;20048;-58
2023/03/24 00:03:36;;;;;;;8.25;1.20;;;7.20;99.90;;;;;;5079347;28;20051;-58
2023/03/24 00:06:08;;;;;;;10.63;1.10;;;7.20;99.90;;;;;;5068936;28;20051;-58
2023/03/24 00:08:36;;;;;;;3.60;0.77;;;7.10;99.90;;;;;;5074943;28;20487;-60
2023/03/24 00:11:10;;;;;;;10.55;1.75;;;7.10;99.90;;;;;;5085969;28;20040;-59
2023/03/24 00:13:38;;;;;;;6.60;1.25;;;7.00;99.90;;;;;;5076635;28;20044;-57
2023/03/24 00:16:09;;;;;;;7.18;1.30;;;7.00;99.90;;;;;;5083749;28;20049;-59
2023/03/24 00:18:38;;;;;;;5.43;1.35;;;7.00;99.90;;;;;;5074512;28;20060;-58
2023/03/24 00:21:07;;;;;;;9.30;2.95;;;7.00;99.90;;;;;;5077480;28;20048;-56
2023/03/24 00:23:35;;;;;;;;;;;7.00;99.90;;;;;;5086571;28;20044;-58
2023/03/24 00:26:05;;;;;;;6.07;1.20;;;7.00;99.90;;;;;;5082662;28;20290;-59
2023/03/24 00:28:35;;;;;;;8.02;1.20;;;6.90;99.90;;;;;;5086276;28;20052;-58
2023/03/24 00:31:05;;;;;;;16.23;1.70;;;6.90;99.90;;;;;;5085892;28;20041;-58
2023/03/24 00:33:34;;;;;;;12.57;2.20;;;6.80;99.90;;;;;;5085173;28;20052;-59
2023/03/24 00:36:06;;;;;;;11.25;1.58;;;6.80;99.90;;;;;;5109958;28;20055;-58
2023/03/24 00:38:35;;;;;;;9.40;1.30;;;6.90;99.90;;;;;;5104223;28;20044;-59
2023/03/24 00:41:04;;;;;;;11.20;1.10;;;6.90;99.90;;;;;;5098069;28;20319;-58
2023/03/24 00:43:33;;;;;;;14.20;1.80;;;6.90;99.90;;;;;;5111284;28;20046;-59
2023/03/24 00:46:27;;;;;;;15.07;1.88;;;7.00;99.90;;;;;;5092059;28;20052;-57
2023/03/24 00:49:01;;;;;;;13.93;2.15;;;7.00;99.90;;;;;;5079370;28;20047;-59
2023/03/24 00:51:37;;;;;;;10.82;1.67;;;7.00;99.90;;;;;;5101347;28;20055;-62
2023/03/24 00:54:06;;;;;;;16.20;1.52;;;7.10;99.90;;;;;;5110060;28;20394;-58
2023/03/24 00:56:36;;;;;;;10.70;1.40;;;8.40;99.90;;;;;;5091021;28;20031;-58
2023/03/24 00:59:05;;;;;;;16.15;1.85;;;7.20;99.90;;;;;;5109195;28;20047;-57
2023/03/24 01:01:35;;;;;;;10.60;1.63;;;7.20;99.90;;;;;;5107766;28;20210;-60
2023/03/24 01:04:04;;;;;;;12.27;1.70;;;7.20;99.90;;;;;;5101899;28;20043;-59
2023/03/24 01:06:35;;;;;;;10.10;1.35;;;7.30;99.90;;;;;;5090802;28;20043;-59
2023/03/24 01:09:05;;;;;;;13.48;1.48;;;7.40;99.90;;;;;;5092170;28;20633;-59
2023/03/24 01:11:38;;;;;;;19.15;2.15;;;7.40;99.90;;;;;;5075037;28;20375;-59
2023/03/24 01:14:08;;;;;;;28.52;2.42;;;7.50;99.90;;;;;;5100387;28;20044;-58
2023/03/24 01:16:36;;;;;;;18.25;2.92;;;7.50;99.90;;;;;;5110916;28;20047;-61
2023/03/24 01:19:05;;;;;;;13.60;1.63;;;7.60;99.90;;;;;;5103866;28;20066;-57
2023/03/24 01:21:34;;;;;;;18.77;1.88;;;7.70;99.90;;;;;;5104945;28;20054;-59
2023/03/24 01:24:03;;;;;;;16.35;1.65;;;7.70;99.90;;;;;;5093317;28;20039;-62
2023/03/24 01:26:31;;;;;;;21.98;1.98;;;7.80;99.90;;;;;;5088414;28;20048;-57
2023/03/24 01:28:59;;;;;;;16.70;2.13;;;7.80;99.90;;;;;;5099508;28;20411;-58
2023/03/24 01:31:27;;;;;;;21.35;3.53;;;7.80;99.90;;;;;;5097972;28;20039;-57
2023/03/24 01:33:55;;;;;;;14.63;2.53;;;7.80;99.90;;;;;;5108510;28;20048;-58
2023/03/24 01:36:23;;;;;;;7.45;1.20;;;7.90;99.90;;;;;;5092110;28;20051;-58
2023/03/24 01:38:51;;;;;;;14.05;1.92;;;7.90;99.90;;;;;;5108421;28;20393;-58
2023/03/24 01:41:19;;;;;;;18.52;1.75;;;7.90;99.90;;;;;;5094748;28;20051;-59
2023/03/24 01:43:47;;;;;;;15.80;2.42;;;7.90;99.90;;;;;;5091452;28;20047;-57
2023/03/24 01:46:18;;;;;;;12.48;1.63;;;7.80;99.90;;;;;;5110002;28;20384;-58
2023/03/24 01:49:07;;;;;;;15.75;1.95;;;7.80;99.90;;;;;;5090182;28;20494;-61
2023/03/24 01:51:41;;;;;;;11.30;1.30;;;7.80;99.90;;;;;;5089551;28;20164;-60
2023/03/24 01:54:18;;;;;;;8.00;1.80;;;7.80;99.90;;;;;;5109522;28;20300;-58
2023/03/24 01:57:00;;;;;;;12.43;1.80;;;7.70;99.90;;;;;;5087050;28;20048;-57
2023/03/24 01:59:31;;;;;;;16.85;1.83;;;7.70;99.90;;;;;;5089963;28;20037;-59
2023/03/24 02:02:26;;;;;;;11.15;1.70;;;7.70;99.90;;;;;;5105988;28;20051;-57
2023/03/24 02:05:04;;;;;;;11.48;2.40;;;7.70;99.90;;;;;;5094094;28;20039;-57
2023/03/24 02:07:55;;;;;;;11.68;1.80;;;7.70;99.90;;;;;;5090979;28;20044;-58
2023/03/24 02:10:23;;;;;;;11.02;1.13;;;7.70;99.90;;;;;;5104566;28;20040;-58
2023/03/24 02:12:51;;;;;;;11.40;1.63;;;7.70;99.90;;;;;;5093954;28;20040;-57
2023/03/24 02:15:20;;;;;;;18.75;1.98;;;7.70;99.90;;;;;;5074972;28;20056;-57
2023/03/24 02:18:17;;;;;;;18.63;2.05;;;7.70;99.90;;;;;;5106441;28;20051;-56
2023/03/24 02:21:16;;;;;;;12.65;2.03;;;7.70;99.90;;;;;;5091623;28;20043;-59
2023/03/24 02:24:08;;;;;;;11.63;2.60;;;7.60;99.90;;;;;;5097719;28;20044;-58
2023/03/24 02:26:58;;;;;;;17.40;1.33;;;7.50;99.90;;;;;;5092026;28;20048;-58
2023/03/24 02:29:30;;;;;;;;;;;7.50;99.90;;;;;;5102831;28;20438;-60
2023/03/24 02:32:17;;;;;;;7.78;1.10;;;7.40;99.90;;;;;;5086040;28;19943;-58
2023/03/24 02:35:07;;;;;;;9.95;1.33;;;7.30;99.90;;;;;;5109959;28;20055;-58
2023/03/24 02:38:09;;;;;;;10.65;1.60;;;7.30;99.90;;;;;;5091658;28;20394;-57
2023/03/24 02:40:40;;;;;;;17.58;1.75;;;7.30;99.90;;;;;;5093940;28;20059;-58
2023/03/24 02:43:20;;;;;;;12.60;1.20;;;7.20;99.90;;;;;;5089021;28;20044;-57
2023/03/24 02:46:19;;;;;;;17.27;1.73;;;7.20;99.90;;;;;;5090530;28;20077;-58
2023/03/24 02:49:08;;;;;;;9.98;2.38;;;7.20;99.90;;;;;;5074640;28;20395;-57
2023/03/24 02:51:55;;;;;;;13.25;2.58;;;7.10;99.90;;;;;;5107934;28;20048;-57
2023/03/24 02:54:39;;;;;;;12.30;1.15;;;7.10;99.90;;;;;;5109333;28;20050;-58
2023/03/24 02:57:21;;;;;;;9.93;1.50;;;7.00;99.90;;;;;;5092599;28;20051;-58
2023/03/24 03:00:16;;;;;;;11.50;1.50;;;7.00;99.90;;;;;;5099878;28;20040;-58
2023/03/24 03:03:38;;;;;;;20.92;1.45;;;6.90;99.90;;;;;;5090869;28;20036;-57
2023/03/24 03:06:16;;;;;;;14.27;2.05;;;6.90;99.90;;;;;;5088750;28;20035;-58
2023/03/24 03:08:46;;;;;;;16.83;3.13;;;6.90;99.90;;;;;;5093431;28;20055;-59
2023/03/24 03:11:16;;;;;;;18.00;1.95;;;6.90;99.90;;;;;;5111013;28;20525;-57
2023/03/24 03:13:48;;;;;;;12.90;1.63;;;6.90;99.90;;;;;;5111830;28;20043;-60
2023/03/24 03:16:33;;;;;;;11.73;1.92;;;6.90;99.90;;;;;;5090808;28;20069;-62
2023/03/24 03:19:18;;;;;;;15.82;1.67;;;6.90;99.90;;;;;;5111941;28;20051;-62
2023/03/24 03:21:48;;;;;;;17.85;1.92;;;6.90;99.90;;;;;;5110419;28;20048;-62
2023/03/24 03:24:29;;;;;;;9.48;1.40;;;7.00;99.90;;;;;;5089945;28;20040;-58
2023/03/24 03:27:09;;;;;;;19.42;2.10;;;7.00;99.90;;;;;;5101427;28;20051;-59
2023/03/24 03:29:45;;;;;;;12.73;1.83;;;7.10;99.90;;;;;;5112099;28;20055;-57
2023/03/24 03:32:20;;;;;;;15.02;2.13;;;7.10;99.90;;;;;;5091450;28;20067;-59
2023/03/24 03:34:55;;;;;;;20.02;2.50;;;7.20;99.90;;;;;;5110873;28;20051;-59
2023/03/24 03:37:45;;;;;;;14.15;1.90;;;7.20;99.90;;;;;;5092118;28;20040;-61
2023/03/24 03:40:22;;;;;;;17.70;1.98;;;7.20;99.90;;;;;;5073538;28;20052;-58
2023/03/24 03:42:56;;;;;;;11.50;1.90;;;7.20;99.90;;;;;;5097969;28;20070;-59
2023/03/24 03:45:24;;;;;;;9.25;1.30;;;7.20;99.90;;;;;;5110484;28;20035;-58
2023/03/24 03:47:52;;;;;;;6.45;1.67;;;7.20;99.90;;;;;;5111345;28;20399;-58
2023/03/24 03:50:20;;;;;;;19.45;2.17;;;7.20;99.90;;;;;;5109874;28;20039;-61
2023/03/24 03:52:49;;;;;;;12.90;1.50;;;7.20;99.90;;;;;;5110944;28;20047;-59
2023/03/24 03:55:17;;;;;;;21.27;2.50;;;7.20;99.90;;;;;;5105301;28;20036;-59
2023/03/24 03:57:45;;;;;;;16.08;1.70;;;7.20;99.90;;;;;;5090778;28;20039;-58
2023/03/24 04:00:21;;;;;;;10.15;1.02;;;7.10;99.90;;;;;;5092712;28;20036;-58
2023/03/24 04:03:36;;;;;;;9.82;2.17;;;7.20;99.90;;;;;;5094359;28;20043;-58
2023/03/24 04:06:31;;;;;;;10.57;1.40;;;7.20;99.90;;;;;;5089795;28;20039;-58
2023/03/24 04:09:24;;;;;;;14.93;1.48;;;7.20;99.90;;;;;;5108189;28;20051;-59
2023/03/24 04:11:55;;;;;;;15.80;2.13;;;7.20;99.90;;;;;;5088293;28;20043;-57
2023/03/24 04:14:59;;;;;;;12.70;2.22;;;7.10;99.90;;;;;;5101888;28;20047;-59
2023/03/24 04:18:05;;;;;;;17.67;1.67;;;7.00;99.90;;;;;;5110390;28;20197;-58
2023/03/24 04:21:22;;;;;;;11.63;1.60;;;7.00;99.90;;;;;;5099114;28;20044;-58
2023/03/24 04:24:02;;;;;;;13.70;1.33;;;6.90;99.90;;;;;;5090222;28;20502;-59
2023/03/24 04:26:42;;;;;;;7.38;1.50;;;6.90;99.90;;;;;;5088050;28;20048;-59
2023/03/24 04:29:32;;;;;;;12.32;1.88;;;6.90;99.90;;;;;;5109400;28;20039;-58
2023/03/24 04:32:13;;;;;;;16.10;1.80;;;6.80;99.90;;;;;;5072339;28;20040;-60
2023/03/24 04:34:49;;;;;;;9.43;1.80;;;6.80;99.90;;;;;;5098363;28;20106;-59
2023/03/24 04:37:36;;;;;;;10.32;1.25;;;6.80;99.90;;;;;;5104395;28;20479;-60
2023/03/24 04:40:13;;;;;;;14.18;1.65;;;6.80;99.90;;;;;;5089994;28;20052;-57
2023/03/24 04:42:47;;;;;;;21.33;2.08;;;6.80;99.90;;;;;;5092028;28;20056;-57
2023/03/24 04:45:16;;;;;;;16.33;1.67;;;6.80;99.90;;;;;;5106084;28;20040;-61
2023/03/24 04:48:12;;;;;;;13.38;2.28;;;6.80;99.90;;;;;;5105974;28;20070;-59
2023/03/24 04:51:00;;;;;;;12.68;1.38;;;6.80;99.90;;;;;;5110103;28;20048;-58
2023/03/24 04:53:37;;;;;;;11.35;1.85;;;6.80;99.90;;;;;;5109115;28;20036;-60
2023/03/24 04:56:26;;;;;;;19.23;2.22;;;6.70;99.90;;;;;;5099955;28;20043;-59
2023/03/24 04:59:06;;;;;;;28.80;2.03;;;6.70;99.90;;;;;;5076739;28;20024;-58
2023/03/24 05:01:36;;;;;;;14.70;2.25;;;6.70;99.90;;;;;;5109448;28;20047;-60
2023/03/24 05:04:25;;;;;;;11.25;2.25;;;6.70;99.90;;;;;;5113348;28;20040;-59
2023/03/24 05:06:54;;;;;;;15.57;2.10;;;6.60;99.90;;;;;;5094524;28;20051;-58
2023/03/24 05:09:25;;;;;;;16.60;1.83;;;6.60;99.90;;;;;;5095872;28;20035;-58
2023/03/24 05:11:52;;;;;;;13.05;2.88;;;6.60;99.90;;;;;;5088417;28;20059;-57
2023/03/24 05:14:22;;;;;;;13.45;2.80;;;6.60;99.90;;;;;;5094425;28;20472;-59
2023/03/24 05:16:50;;;;;;;15.75;2.25;;;6.60;99.90;;;;;;5092991;28;20498;-57
2023/03/24 05:19:20;;;;;;;12.02;1.52;;;6.50;99.90;;;;;;5095661;28;20044;-59
2023/03/24 05:21:47;;;;;;;12.43;1.38;;;6.60;99.90;;;;;;5112018;28;20043;-57
2023/03/24 05:24:15;;;;;;;13.55;1.73;;;6.50;99.90;;;;;;5095357;28;20040;-58
2023/03/24 05:26:43;;;;;;;14.23;1.52;;;6.60;99.90;;;;;;5104943;28;20052;-57
2023/03/24 05:29:17;;;;;;;7.15;1.13;;;6.50;99.90;;;;;;5092936;28;20395;-58
2023/03/24 05:31:45;;;;;;;15.95;1.92;;;6.60;99.90;;;;;;5099552;28;20383;-58
2023/03/24 05:34:17;;;;;;;6.57;1.30;;;6.50;99.90;;;;;;5091475;28;20041;-58
2023/03/24 05:36:54;;;;;;;5.35;1.10;;;6.50;99.90;;;;;;5108651;28;20423;-58
2023/03/24 05:39:22;;;;;;;6.78;1.23;;;6.60;99.90;;;;;;5092601;28;20035;-59
2023/03/24 05:42:16;;;;;;;6.05;0.60;;;6.60;99.90;;;;;;5057994;28;20057;-60
2023/03/24 05:44:44;;;;;;;5.55;0.70;;;6.60;99.90;;;;;;5092692;28;20040;-59
2023/03/24 05:47:21;;;;;;;5.63;0.55;;;6.70;99.90;;;;;;5086933;28;20048;-60
2023/03/24 05:49:50;;;;;;;7.43;0.95;;;6.70;99.90;;;;;;5079068;28;20052;-59
2023/03/24 05:52:19;;;;;;;6.72;0.90;;;6.80;99.90;;;;;;5085435;28;20051;-59
2023/03/24 05:54:51;;;;;;;6.10;0.68;;;6.80;99.90;;;;;;5079686;28;20507;-58
2023/03/24 05:57:22;;;;;;;3.67;0.80;;;6.80;99.90;;;;;;5082845;28;20047;-58
2023/03/24 06:00:15;;;;;;;7.47;0.55;;;6.80;99.90;;;;;;5075968;28;20055;-59
2023/03/24 06:02:56;;;;;;;6.22;0.70;;;6.90;99.90;;;;;;5078098;28;20058;-57
2023/03/24 06:05:36;;;;;;;8.63;1.05;;;6.90;99.90;;;;;;5075729;28;20040;-58
2023/03/24 06:08:04;;;;;;;4.28;0.50;;;6.90;99.90;;;;;;5085716;28;20063;-57
2023/03/24 06:10:35;;;;;;;3.95;0.73;;;6.90;99.90;;;;;;5087276;28;20044;-59
2023/03/24 06:13:04;;;;;;;10.73;0.95;;;7.00;99.90;;;;;;5083216;28;20059;-62
2023/03/24 06:15:38;;;;;;;5.95;1.48;;;7.00;99.90;;;;;;5083264;28;20656;-59
2023/03/24 06:18:25;;;;;;;12.40;1.70;;;7.10;99.90;;;;;;5078287;28;20055;-60
2023/03/24 06:20:56;;;;;;;15.07;1.67;;;7.10;99.90;;;;;;5066009;28;20289;-59
2023/03/24 06:23:28;;;;;;;8.48;1.10;;;7.10;99.90;;;;;;5101463;28;20044;-59
2023/03/24 06:26:08;;;;;;;15.50;1.42;;;7.10;99.90;;;;;;5085137;28;20048;-59
2023/03/24 06:28:42;;;;;;;10.73;1.90;;;7.10;99.90;;;;;;5084441;28;20460;-58
2023/03/24 06:31:20;;;;;;;19.67;2.38;;;7.20;99.90;;;;;;5086859;28;20040;-59
2023/03/24 06:33:51;;;;;;;16.70;1.88;;;7.20;99.90;;;;;;5100733;28;20488;-58
2023/03/24 06:36:22;;;;;;;14.50;1.55;;;7.20;99.90;;;;;;5070658;28;20087;-58
2023/03/24 06:38:51;;;;;;;16.02;2.50;;;7.30;99.90;;;;;;5073606;28;20039;-60
2023/03/24 06:41:21;;;;;;;11.50;1.85;;;7.30;99.90;;;;;;5085644;28;20047;-60
2023/03/24 06:43:54;;;;;;;14.52;2.58;;;7.30;99.90;;;;;;5079707;28;20499;-62
2023/03/24 06:46:22;;;;;;;23.73;2.67;;;7.30;99.90;;;;;;5079315;28;20523;-60
2023/03/24 06:48:50;;;;;;;12.73;1.60;;;7.40;99.90;;;;;;5073435;28;20488;-59
2023/03/24 06:51:18;;;;;;;11.55;1.70;;;7.40;99.90;;;;;;5089401;28;20051;-61
2023/03/24 06:53:46;;;;;;;10.85;1.75;;;7.30;99.90;;;;;;5054589;28;20051;-60
2023/03/24 06:56:16;;;;;;;9.05;1.77;;;7.30;99.90;;;;;;5082171;28;20484;-61
2023/03/24 06:58:50;;;;;;;20.27;2.40;;;7.30;99.90;;;;;;5099664;28;20043;-58
2023/03/24 07:01:34;;;;;;;18.40;3.50;;;7.30;99.90;;;;;;5081171;28;20056;-59
2023/03/24 07:04:24;;;;;;;7.07;2.13;;;7.20;99.90;;;;;;5094658;28;20484;-58
2023/03/24 07:06:52;;;;;;;9.80;1.35;;;7.20;99.90;;;;;;5085141;28;20051;-61
2023/03/24 07:09:43;;;;;;;19.40;2.40;;;;;;;;;;5089436;28;20419;-59
2023/03/24 07:12:11;;;;;;;24.77;2.63;;;7.20;99.90;;;;;;5085735;28;20032;-59
2023/03/24 07:14:41;;;;;;;20.20;1.92;;;7.20;99.90;;;;;;5065717;28;20500;-58
2023/03/24 07:17:10;;;;;;;15.98;1.73;;;7.30;99.90;;;;;;5096994;28;20510;-57
2023/03/24 07:19:51;;;;;;;15.55;1.98;;;7.30;99.90;;;;;;5067180;28;20427;-57
2023/03/24 07:22:44;;;;;;;9.90;1.75;;;7.30;99.90;;;;;;5073908;28;20051;-57
2023/03/24 07:25:24;;;;;;;16.17;2.00;;;7.50;99.90;;;;;;5077706;28;20044;-57
2023/03/24 07:28:09;;;;;;;8.90;1.75;;;7.50;99.90;;;;;;5092875;28;20056;-57
2023/03/24 07:30:38;;;;;;;17.33;2.17;;;7.60;99.90;;;;;;5087260;28;20051;-58
2023/03/24 07:33:19;;;;;;;12.88;2.28;;;7.70;99.90;;;;;;5089618;28;20055;-57
2023/03/24 07:35:47;;;;;;;15.98;2.30;;;7.70;99.90;;;;;;5089476;28;20039;-60
2023/03/24 07:38:15;;;;;;;16.60;2.17;;;7.80;99.90;;;;;;5083866;28;20395;-58
2023/03/24 07:40:44;;;;;;;16.55;1.73;;;7.80;99.90;;;;;;5099806;28;20280;-64
2023/03/24 07:43:13;;;;;;;24.38;3.47;;;7.90;99.90;;;;;;5107808;28;20044;-65
2023/03/24 07:46:00;;;;;;;13.48;2.25;;;;;;;;;;5102454;28;20031;-60
2023/03/24 07:48:28;;;;;;;16.52;2.47;;;8.00;99.90;;;;;;5066759;28;20035;-58
2023/03/24 07:50:56;;;;;;;15.15;2.22;;;8.10;99.90;;;;;;5084975;28;20044;-60
2023/03/24 07:53:44;;;;;;;12.50;2.22;;;8.20;99.90;;;;;;5092766;28;20044;-57
2023/03/24 07:56:14;;;;;;;14.45;2.25;;;8.20;99.90;;;;;;5072155;28;20059;-56
2023/03/24 07:58:51;;;;;;;17.83;1.67;;;8.30;99.90;;;;;;5078241;28;20047;-55
2023/03/24 08:01:27;;;;;;;27.63;4.90;;;8.30;99.90;;;;;;5104221;28;20394;-56
2023/03/24 08:04:03;;;;;;;16.80;2.50;;;8.30;99.90;;;;;;5080642;28;20492;-57
2023/03/24 08:06:57;;;;;;;13.18;1.80;;;8.30;99.90;;;;;;5068813;28;20054;-57
2023/03/24 08:09:25;;;;;;;14.40;2.35;;;8.30;99.90;;;;;;5102446;28;21452;-57
2023/03/24 08:11:53;;;;;;;7.30;1.67;;;8.30;99.90;;;;;;5104254;28;20921;-58
2023/03/24 08:14:23;;;;;;;15.52;1.98;;;8.30;99.90;;;;;;5099180;28;20047;-58
2023/03/24 08:16:52;;;;;;;11.13;2.23;;;8.30;99.90;;;;;;5104778;28;20048;-57
2023/03/24 08:19:20;;;;;;;19.83;2.65;;;8.30;99.90;;;;;;5105166;28;20292;-57
2023/03/24 08:21:48;;;;;;;10.60;1.52;;;8.30;99.90;;;;;;5105839;28;20054;-59
2023/03/24 08:24:16;;;;;;;12.65;1.77;;;8.30;99.90;;;;;;5106311;28;20051;-58
2023/03/24 08:26:45;;;;;;;21.20;2.67;;;8.40;99.90;;;;;;5107308;28;20494;-57
2023/03/24 08:29:12;;;;;;;17.58;2.03;;;8.50;99.90;;;;;;5088903;28;20055;-57
2023/03/24 08:31:40;;;;;;;20.45;1.60;;;8.60;99.90;;;;;;5105405;28;20487;-59
2023/03/24 08:34:10;;;;;;;9.18;1.60;;;8.60;99.90;;;;;;5100529;28;20039;-56
2023/03/24 08:36:38;;;;;;;14.25;1.20;;;8.80;99.90;;;;;;5086796;28;20039;-56
2023/03/24 08:39:09;;;;;;;13.95;1.50;;;8.80;99.90;;;;;;5075791;28;20044;-57
2023/03/24 08:41:36;;;;;;;13.13;1.27;;;9.00;99.90;;;;;;5092879;28;20042;-57
2023/03/24 08:44:06;;;;;;;15.68;1.92;;;9.00;99.90;;;;;;5083660;28;20052;-57
2023/03/24 08:46:34;;;;;;;12.10;1.92;;;9.10;99.90;;;;;;5108528;28;20050;-56
2023/03/24 08:49:02;;;;;;;16.50;2.00;;;9.30;99.90;;;;;;5110361;28;20055;-58
2023/03/24 08:51:30;;;;;;;9.85;1.35;;;9.50;99.90;;;;;;5108833;28;20047;-58
2023/03/24 08:53:58;;;;;;;11.95;1.10;;;9.50;99.90;;;;;;5108024;28;20048;-58
2023/03/24 08:56:26;;;;;;;9.18;1.27;;;9.70;99.90;;;;;;5105018;28;20046;-58
2023/03/24 08:58:54;;;;;;;12.90;1.55;;;9.80;99.90;;;;;;5097664;28;20055;-59
2023/03/24 09:01:22;;;;;;;8.65;1.20;;;9.80;99.90;;;;;;5108677;28;20040;-57
2023/03/24 09:03:50;;;;;;;7.57;1.15;;;10.00;99.90;;;;;;5105603;28;20058;-57
2023/03/24 09:06:18;;;;;;;13.45;1.35;;;10.00;99.90;;;;;;5109476;28;20043;-56
2023/03/24 09:08:46;;;;;;;10.95;1.02;;;10.10;99.90;;;;;;5110501;28;20056;-58
2023/03/24 09:11:16;;;;;;;12.80;1.67;;;10.20;99.90;;;;;;5111759;28;20048;-58
2023/03/24 09:13:44;;;;;;;10.80;1.60;;;;;;;;;;5109658;28;20062;-59
2023/03/24 09:16:12;;;;;;;8.05;1.10;;;10.30;99.90;;;;;;5110735;28;20035;-58
2023/03/24 09:18:41;;;;;;;9.80;1.33;;;10.30;99.90;;;;;;5110512;28;20044;-56
2023/03/24 09:21:12;;;;;;;11.30;1.17;;;10.30;99.90;;;;;;5103190;28;20047;-58
2023/03/24 09:23:41;;;;;;;8.18;1.38;;;10.30;99.90;;;;;;5108583;28;20051;-57
2023/03/24 09:26:10;;;;;;;9.00;1.75;;;10.30;99.90;;;;;;5087031;28;20059;-58
2023/03/24 09:28:37;;;;;;;19.77;2.50;;;10.30;99.90;;;;;;5100929;28;20051;-58
2023/03/24 09:31:05;;;;;;;13.82;1.42;;;10.30;99.90;;;;;;5108191;28;20086;-57
2023/03/24 09:33:33;;;;;;;13.23;2.33;;;10.30;99.90;;;;;;5107944;28;20052;-58
2023/03/24 09:36:03;;;;;;;10.23;2.53;;;10.40;99.90;;;;;;5103582;28;20044;-57
2023/03/24 09:38:32;;;;;;;12.00;1.60;;;10.40;99.90;;;;;;5077638;28;20627;-57
2023/03/24 09:41:01;;;;;;;20.15;1.98;;;10.40;99.90;;;;;;5095615;28;20039;-58
2023/03/24 09:43:38;;;;;;;15.57;1.55;;;10.40;99.90;;;;;;5108026;28;20058;-56
2023/03/24 09:46:20;;;;;;;18.25;1.83;;;10.50;99.90;;;;;;5093016;28;20035;-58
2023/03/24 09:48:52;;;;;;;17.98;1.92;;;10.40;99.90;;;;;;5104016;28;20046;-58
2023/03/24 09:51:26;;;;;;;14.02;1.55;;;10.40;99.90;;;;;;5103925;28;20035;-59
2023/03/24 09:54:18;;;;;;;17.13;1.90;;;10.40;99.90;;;;;;5101314;28;20514;-59
2023/03/24 09:56:47;;;;;;;13.25;1.65;;;10.40;99.90;;;;;;5108871;28;20044;-57
2023/03/24 09:59:37;;;;;;;12.65;2.55;;;10.40;99.90;;;;;;5104838;28;20060;-57
2023/03/24 10:02:17;;;;;;;11.30;1.90;;;10.50;99.90;;;;;;5098464;28;20414;-57
2023/03/24 10:04:45;;;;;;;14.07;1.85;;;10.70;99.90;;;;;;5100977;28;20059;-58
2023/03/24 10:08:10;;;;;;;14.50;1.38;;;10.70;99.90;;;;;;5099024;28;20164;-57
2023/03/24 10:10:54;;;;;;;12.13;2.30;;;11.00;99.90;;;;;;5019857;28;20057;-57
2023/03/24 10:13:47;;;;;;;10.07;2.03;;;11.30;99.90;;;;;;5106618;28;20487;-57
2023/03/24 10:17:10;;;;;;;18.73;3.17;;;11.30;99.90;;;;;;5110751;28;20039;-58
2023/03/24 10:19:54;;;;;;;12.77;1.50;;;11.60;99.90;;;;;;5062417;28;20044;-58
2023/03/24 10:22:31;;;;;;;7.03;2.17;;;11.60;99.90;;;;;;5106291;28;20046;-58
2023/03/24 10:25:04;;;;;;;16.38;1.90;;;12.50;99.90;;;;;;5109767;28;20039;-59
2023/03/24 10:27:42;;;;;;;11.60;2.28;;;11.60;99.90;;;;;;5109637;28;20511;-58
2023/03/24 10:30:26;;;;;;;11.55;2.08;;;11.70;99.90;;;;;;5107859;28;20040;-57
2023/03/24 10:32:55;;;;;;;12.57;1.05;;;11.70;99.90;;;;;;5108501;28;20043;-56
2023/03/24 10:35:34;;;;;;;14.57;1.80;;;11.60;99.90;;;;;;5107208;28;20051;-59
2023/03/24 10:38:14;;;;;;;16.52;1.92;;;11.40;99.90;;;;;;5071250;28;20056;-57
2023/03/24 10:40:42;;;;;;;11.50;1.77;;;11.30;99.90;;;;;;5089982;28;20347;-60
2023/03/24 10:43:10;;;;;;;12.82;1.40;;;11.10;99.90;;;;;;5101413;28;20046;-57
2023/03/24 10:45:43;;;;;;;6.05;1.08;;;10.90;99.90;;;;;;5097165;28;20047;-57
2023/03/24 10:48:13;;;;;;;12.48;1.33;;;10.70;99.90;;;;;;5103874;28;20055;-56
2023/03/24 10:50:44;;;;;;;8.30;1.88;;;10.40;99.90;;;;;;5107733;28;20495;-57
2023/03/24 10:53:17;;;;;;;9.43;1.88;;;10.10;99.90;;;;;;5105534;28;20044;-61
2023/03/24 10:55:46;;;;;;;7.22;1.52;;;9.80;99.90;;;;;;5084303;28;20498;-58
2023/03/24 10:58:39;;;;;;;11.02;1.98;;;9.60;99.90;;;;;;5107420;28;20078;-57
2023/03/24 11:01:23;;;;;;;8.00;1.52;;;9.60;99.90;;;;;;5109747;28;20067;-56
2023/03/24 11:03:51;;;;;;;4.85;2.00;;;9.30;99.90;;;;;;5099672;28;20048;-56
2023/03/24 11:06:20;;;;;;;11.23;1.45;;;9.30;99.90;;;;;;5107580;28;20050;-56
2023/03/24 11:09:18;;;;;;;4.68;0.80;;;9.30;99.90;;;;;;5108010;28;20043;-56
2023/03/24 11:11:46;;;;;;;13.25;1.60;;;9.60;99.90;;;;;;5100301;28;20055;-55
2023/03/24 11:14:25;;;;;;;10.50;2.95;;;9.60;99.90;;;;;;5108479;28;20233;-57
2023/03/24 11:17:13;;;;;;;8.25;1.65;;;9.80;99.90;;;;;;5078346;28;20044;-55
2023/03/24 11:19:56;;;;;;;12.18;1.70;;;10.00;99.90;;;;;;5085913;28;20051;-55
2023/03/24 11:22:25;;;;;;;9.55;1.52;;;10.00;99.90;;;;;;5106171;28;20044;-55
2023/03/24 11:24:55;;;;;;;4.57;1.20;;;10.00;99.90;;;;;;5107469;28;20044;-55
2023/03/24 11:27:23;;;;;;;4.28;0.63;;;9.90;99.90;;;;;;5105555;28;20060;-62
2023/03/24 11:29:53;;;;;;;5.45;0.68;;;9.80;99.90;;;;;;5107140;28;20055;-55
2023/03/24 11:32:26;;;;;;;3.80;0.73;;;9.70;99.90;;;;;;5103280;28;20031;-55
2023/03/24 11:35:12;;;;;;;5.80;0.73;;;9.70;99.90;;;;;;5104890;28;20812;-56
2023/03/24 11:37:44;;;;;;;6.57;0.82;;;9.60;99.90;;;;;;5103422;28;20037;-57
2023/03/24 11:40:14;;;;;;;5.07;1.58;;;9.60;99.90;;;;;;5099248;28;20070;-56
2023/03/24 11:42:45;;;;;;;11.48;1.55;;;10.10;99.90;;;;;;5102416;28;20100;-56
2023/03/24 11:45:33;;;;;;;13.40;2.22;;;10.10;99.90;;;;;;5104538;28;20418;-60
2023/03/24 11:48:09;;;;;;;7.35;0.80;;;10.40;99.90;;;;;;5102620;28;20048;-58
2023/03/24 11:50:38;;;;;;;8.82;1.33;;;11.20;99.90;;;;;;5108570;28;20195;-57
2023/03/24 11:53:16;;;;;;;10.55;1.52;;;11.20;99.90;;;;;;5096644;28;20059;-57
2023/03/24 11:56:02;;;;;;;13.45;2.70;;;11.50;99.90;;;;;;5102734;28;20047;-58
2023/03/24 11:58:41;;;;;;;8.73;0.73;;;12.30;99.90;;;;;;5103871;28;20044;-60
2023/03/24 12:01:19;;;;;;;6.90;0.87;;;12.40;99.90;;;;;;5087781;28;20059;-64
2023/03/24 12:04:32;;;;;;;6.30;0.82;;;12.80;99.90;;;;;;5099709;28;20299;-57
2023/03/24 12:07:38;;;;;;;4.10;0.50;;;13.10;99.90;;;;;;5088176;28;20055;-59
2023/03/24 12:10:09;;;;;;;6.55;0.90;;;13.50;99.90;;;;;;5099591;28;20055;-61
2023/03/24 12:12:46;;;;;;;3.28;0.93;;;13.90;99.90;;;;;;5100544;28;20406;-61
2023/03/24 12:15:27;;;;;;;6.28;0.88;;;13.90;99.90;;;;;;5098975;28;20035;-58
2023/03/24 12:18:05;;;;;;;8.00;1.70;;;13.90;99.90;;;;;;5101525;28;20414;-58
2023/03/24 12:20:52;;;;;;;5.82;1.10;;;14.10;99.90;;;;;;5095453;28;20051;-60
2023/03/24 12:23:38;;;;;;;8.13;1.15;;;14.40;99.90;;;;;;5075319;28;20056;-58
2023/03/24 12:26:18;;;;;;;11.93;1.25;;;14.50;99.90;;;;;;5100640;28;20044;-60
2023/03/24 12:29:25;;;;;;;11.77;1.25;;;14.40;99.90;;;;;;5104720;28;20402;-61
2023/03/24 12:32:17;;;;;;;4.85;0.75;;;14.40;99.90;;;;;;5096830;28;20047;-58
2023/03/24 12:34:54;;;;;;;6.15;0.93;;;14.70;99.90;;;;;;5097184;28;20040;-62
2023/03/24 12:37:34;;;;;;;8.43;0.93;;;15.00;99.90;;;;;;5102812;28;20039;-60
2023/03/24 12:40:11;;;;;;;3.72;0.80;;;15.40;99.90;;;;;;5106499;28;20824;-58
2023/03/24 12:42:45;;;;;;;5.57;0.73;;;15.70;99.90;;;;;;5106734;28;20052;-59
2023/03/24 12:45:52;;;;;;;5.63;1.20;;;15.90;99.90;;;;;;5097682;28;20032;-61
2023/03/24 12:48:31;;;;;;;1.75;0.70;;;16.20;99.90;;;;;;5083589;28;20051;-58
2023/03/24 12:51:02;;;;;;;4.93;0.70;;;16.20;99.90;;;;;;5097542;28;20062;-60
2023/03/24 12:53:54;;;;;;;4.47;0.80;;;16.20;99.90;;;;;;5103969;28;20191;-59
2023/03/24 12:56:42;;;;;;;5.47;1.35;;;16.30;99.90;;;;;;5097134;28;20044;-65
2023/03/24 12:59:18;;;;;;;6.72;0.90;;;16.30;99.90;;;;;;5104100;28;20044;-59
2023/03/24 13:01:57;;;;;;;5.03;0.88;;;16.50;99.90;;;;;;5106541;28;20387;-60
2023/03/24 13:04:39;;;;;;;6.05;0.68;;;16.80;99.90;;;;;;5085371;28;20493;-60
2023/03/24 13:07:27;;;;;;;8.02;1.27;;;16.90;99.90;;;;;;5099159;28;20395;-58
2023/03/24 13:10:16;;;;;;;3.92;0.80;;;16.60;99.90;;;;;;5064087;28;20210;-59
2023/03/24 13:13:05;;;;;;;5.95;1.20;;;16.10;99.90;;;;;;5102175;28;20044;-57
2023/03/24 13:15:44;;;;;;;4.40;0.82;;;16.10;99.90;;;;;;5102168;28;20469;-59
2023/03/24 13:18:19;;;;;;;6.43;1.40;;;15.90;99.90;;;;;;5084485;28;20055;-59
2023/03/24 13:21:28;;;;;;;5.35;1.02;;;16.20;99.90;;;;;;5083712;28;20095;-60
2023/03/24 13:24:08;;;;;;;6.22;0.60;;;15.70;99.90;;;;;;5057872;28;20047;-59
2023/03/24 13:27:00;;;;;;;10.65;1.10;;;15.60;99.90;;;;;;5111167;28;20051;-58
2023/03/24 13:29:48;;;;;;;3.67;0.70;;;14.60;99.90;;;;;;5110346;28;20040;-58
2023/03/24 13:32:43;;;;;;;5.10;1.10;;;14.50;99.90;;;;;;5109899;28;20396;-58
2023/03/24 13:35:30;;;;;;;3.00;0.82;;;14.90;99.90;;;;;;5111033;28;20048;-59
2023/03/24 13:38:16;;;;;;;3.83;0.45;;;14.90;99.90;;;;;;5102904;28;20051;-60